Time;durP1;ratioP1;P1;durP2;ratioP2;P2;SDS_P1;SDS_P2;PMS_P1;PMS_P2;Temp;Humidity;BMP_temperature;BMP_pressure;BME280_temperature;BME280_humidity;BME280_pressure;Samples;Min_cycle;Max_cycle;Signal;HPM_P1;HPM_P2
2023/12/11 00:00:20;;;;;;;27.60;11.50;;;;;;;17.44;51.16;99897.19;5023381;28;20081;-36
2023/12/11 00:02:47;;;;;;;21.08;10.00;;;;;;;17.45;51.14;99898.88;5028377;28;20072;-36
2023/12/11 00:05:14;;;;;;;26.30;11.90;;;;;;;17.43;50.91;99898.19;5023827;28;20523;-36
2023/12/11 00:07:41;;;;;;;25.10;11.07;;;;;;;17.42;51.25;99895.69;5031580;28;20128;-36
2023/12/11 00:10:08;;;;;;;21.77;10.38;;;;;;;17.42;50.84;99903.75;5023577;28;20107;-36
2023/12/11 00:12:36;;;;;;;22.52;9.80;;;;;;;17.40;50.76;99897.69;5027457;28;20077;-36
2023/12/11 00:15:03;;;;;;;22.67;9.75;;;;;;;17.40;51.50;99901.22;5027292;28;20380;-36
2023/12/11 00:17:30;;;;;;;23.83;10.77;;;;;;;17.39;51.37;99890.69;5026458;28;20171;-36
2023/12/11 00:19:57;;;;;;;26.13;11.32;;;;;;;17.38;51.01;99884.50;5024314;28;20077;-36
2023/12/11 00:22:24;;;;;;;22.08;9.10;;;;;;;17.38;50.89;99883.66;5028496;28;20087;-36
2023/12/11 00:24:51;;;;;;;18.90;8.85;;;;;;;17.37;51.31;99892.72;5029544;28;20057;-36
2023/12/11 00:27:18;;;;;;;24.02;10.15;;;;;;;17.36;51.17;99882.97;5025563;28;20053;-36
2023/12/11 00:29:44;;;;;;;21.85;9.77;;;;;;;17.35;50.80;99884.00;5023756;28;20049;-36
2023/12/11 00:32:12;;;;;;;20.92;8.98;;;;;;;17.35;50.86;99886.69;5023162;28;20157;-36
2023/12/11 00:34:38;;;;;;;21.13;8.98;;;;;;;17.34;50.94;99895.72;5023531;28;20045;-35
2023/12/11 00:37:05;;;;;;;24.23;10.25;;;;;;;17.34;51.48;99888.53;5023463;28;20053;-36
2023/12/11 00:39:32;;;;;;;22.15;8.35;;;;;;;17.33;51.35;99884.19;5026018;28;20054;-36
2023/12/11 00:41:58;;;;;;;20.95;9.25;;;;;;;17.33;51.07;99880.69;5025335;28;20111;-36
2023/12/11 00:44:25;;;;;;;23.48;10.15;;;;;;;17.34;50.87;99882.34;5027406;28;20456;-36
2023/12/11 00:46:52;;;;;;;19.63;8.93;;;;;;;17.34;51.18;99879.66;5025762;28;20049;-35
2023/12/11 00:49:18;;;;;;;21.55;9.65;;;;;;;17.34;51.11;99887.69;5029598;28;20042;-36
2023/12/11 00:51:48;;;;;;;17.33;8.88;;;;;;;17.33;50.72;99878.00;5030822;28;20049;-35
2023/12/11 00:54:15;;;;;;;22.05;8.30;;;;;;;17.33;51.00;99875.31;5018660;28;20135;-35
2023/12/11 00:56:42;;;;;;;21.83;8.98;;;;;;;17.32;51.32;99863.75;5019270;28;20386;-35
2023/12/11 00:59:08;;;;;;;19.15;7.78;;;;;;;17.32;50.74;99868.28;5022829;28;20049;-35
2023/12/11 01:01:35;;;;;;;23.33;8.82;;;;;;;17.30;51.04;99865.78;5017111;28;20050;-35
2023/12/11 01:04:02;;;;;;;21.17;8.20;;;;;;;17.31;50.93;99856.72;5029433;28;20053;-35
2023/12/11 01:06:28;;;;;;;20.75;8.15;;;;;;;17.32;50.93;99854.88;5023476;28;20104;-35
2023/12/11 01:08:55;;;;;;;22.83;8.40;;;;;;;17.31;50.68;99864.75;5022874;28;20460;-35
2023/12/11 01:11:22;;;;;;;23.15;8.00;;;;;;;17.31;50.99;99859.41;5022030;28;20520;-36
2023/12/11 01:13:48;;;;;;;20.15;7.90;;;;;;;17.30;51.04;99849.72;5027864;28;20394;-36
2023/12/11 01:16:15;;;;;;;22.77;8.68;;;;;;;17.30;51.14;99846.19;5025881;28;20437;-35
2023/12/11 01:18:42;;;;;;;21.02;7.82;;;;;;;17.30;51.30;99844.34;5031171;28;20049;-36
2023/12/11 01:21:09;;;;;;;20.45;6.57;;;;;;;17.29;50.94;99829.28;5026720;28;20067;-35
2023/12/11 01:23:35;;;;;;;18.30;7.32;;;;;;;17.28;51.03;99838.31;5024793;28;20122;-36
2023/12/11 01:26:02;;;;;;;25.50;8.52;;;;;;;17.27;50.95;99842.84;5034449;28;20054;-35
2023/12/11 01:28:29;;;;;;;20.40;6.90;;;;;;;17.27;51.23;99828.63;5021744;28;20077;-36
2023/12/11 01:30:55;;;;;;;18.25;6.60;;;;;;;17.27;50.62;99829.44;5023560;28;20181;-36
2023/12/11 01:33:22;;;;;;;20.80;6.85;;;;;;;17.26;51.12;99832.31;5028585;28;20440;-36
2023/12/11 01:35:49;;;;;;;19.15;7.50;;;;;;;17.26;51.27;99827.78;5029936;28;20136;-35
2023/12/11 01:38:16;;;;;;;20.83;6.47;;;;;;;17.25;50.60;99828.81;5029355;28;20065;-36
2023/12/11 01:40:42;;;;;;;23.65;7.72;;;;;;;17.25;50.92;99820.78;5021842;28;20132;-36
2023/12/11 01:43:19;;;;;;;17.23;6.65;;;;;;;17.25;50.71;99814.59;5027769;28;20130;-36
2023/12/11 01:45:58;;;;;;;21.52;7.10;;;;;;;17.24;51.15;99810.22;5022240;28;20576;-35
2023/12/11 01:48:25;;;;;;;18.10;6.60;;;;;;;17.24;50.64;99812.88;5027670;28;20049;-36
2023/12/11 01:50:52;;;;;;;20.30;6.68;;;;;;;17.24;50.90;99805.69;5030144;28;20118;-36
2023/12/11 01:53:20;;;;;;;17.58;6.47;;;;;;;17.22;50.84;99805.03;5035710;28;20056;-36
2023/12/11 01:55:48;;;;;;;20.05;6.28;;;;;;;17.21;50.60;99803.38;5030510;28;20056;-36
2023/12/11 01:58:16;;;;;;;21.52;6.50;;;;;;;17.20;51.02;99807.03;5032017;28;20062;-36
2023/12/11 02:00:42;;;;;;;17.55;6.30;;;;;;;17.19;51.24;99805.38;5034546;28;20080;-36
2023/12/11 02:03:09;;;;;;;22.13;7.07;;;;;;;17.18;51.08;99798.38;5028655;28;20421;-36
2023/12/11 02:05:37;;;;;;;19.50;6.07;;;;;;;17.17;51.45;99788.66;5025586;28;20368;-36
2023/12/11 02:08:04;;;;;;;16.40;5.45;;;;;;;17.17;50.79;99793.19;5028199;28;20049;-36
2023/12/11 02:10:30;;;;;;;18.63;5.55;;;;;;;17.16;51.22;99786.97;5026465;28;20176;-36
2023/12/11 02:12:57;;;;;;;18.17;5.68;;;;;;;17.16;51.50;99788.81;5024321;28;20502;-35
2023/12/11 02:15:56;;;;;;;18.15;5.97;;;;;;;17.12;51.75;99782.97;5028308;28;20133;-35
2023/12/11 02:18:23;;;;;;;20.23;6.57;;;;;;;17.14;50.73;99777.47;5009817;28;20045;-35
2023/12/11 02:20:50;;;;;;;19.63;5.93;;;;;;;17.12;51.56;99776.78;5029475;28;20447;-35
2023/12/11 02:23:28;;;;;;;20.10;5.97;;;;;;;17.11;51.24;99781.31;5025331;28;20085;-35
2023/12/11 02:26:09;;;;;;;17.40;5.30;;;;;;;17.09;51.16;99777.16;5026602;28;20141;-35
2023/12/11 02:28:36;;;;;;;19.10;5.97;;;;;;;17.09;51.00;99779.84;5026458;28;20803;-35
2023/12/11 02:31:03;;;;;;;16.58;5.63;;;;;;;17.10;51.44;99773.47;5025751;28;20104;-35
2023/12/11 02:33:29;;;;;;;18.63;6.28;;;;;;;17.09;51.53;99769.13;5023827;28;20077;-35
2023/12/11 02:35:56;;;;;;;17.20;4.97;;;;;;;17.08;51.78;99764.75;5027129;28;20084;-36
2023/12/11 02:38:23;;;;;;;22.27;5.65;;;;;;;17.08;51.21;99759.41;5030169;28;20124;-35
2023/12/11 02:40:50;;;;;;;12.40;5.03;;;;;;;17.07;51.39;99750.53;5024801;28;20045;-35
2023/12/11 02:43:16;;;;;;;16.73;5.45;;;;;;;17.07;51.03;99749.72;5025840;28;20373;-35
2023/12/11 02:45:43;;;;;;;15.27;4.97;;;;;;;17.06;51.09;99754.25;5025380;28;20055;-35
2023/12/11 02:48:11;;;;;;;18.60;5.70;;;;;;;17.06;51.38;99748.88;5027982;28;20096;-35
2023/12/11 02:50:38;;;;;;;17.23;5.18;;;;;;;17.06;51.65;99740.84;5033313;28;20042;-36
2023/12/11 02:53:05;;;;;;;16.65;5.25;;;;;;;17.05;51.36;99736.50;5031843;28;20136;-35
2023/12/11 02:55:31;;;;;;;18.70;5.45;;;;;;;17.05;51.22;99739.19;5031457;28;20053;-36
2023/12/11 02:58:00;;;;;;;15.70;5.22;;;;;;;17.06;51.09;99722.13;5026838;28;20050;-35
2023/12/11 03:00:28;;;;;;;17.20;5.03;;;;;;;17.06;51.08;99732.00;5028538;28;20049;-36
2023/12/11 03:02:55;;;;;;;14.70;5.43;;;;;;;17.05;51.55;99712.44;5030450;28;20123;-36
2023/12/11 03:05:22;;;;;;;15.45;5.15;;;;;;;17.06;51.68;99716.75;5023301;28;20361;-35
2023/12/11 03:07:48;;;;;;;15.65;5.15;;;;;;;17.05;51.35;99720.47;5025298;28;20064;-36
2023/12/11 03:10:16;;;;;;;19.10;5.50;;;;;;;17.04;51.48;99716.09;5023535;28;20128;-36
2023/12/11 03:12:42;;;;;;;14.40;4.63;;;;;;;17.05;51.25;99707.06;5029257;28;20077;-36
2023/12/11 03:15:09;;;;;;;15.13;5.20;;;;;;;17.05;51.49;99717.78;5029272;28;20099;-36
2023/12/11 03:17:36;;;;;;;17.58;5.85;;;;;;;17.04;52.09;99710.72;5027846;28;20144;-36
2023/12/11 03:20:05;;;;;;;15.23;5.72;;;;;;;17.05;51.03;99706.25;5031847;28;20049;-36
2023/12/11 03:22:32;;;;;;;12.27;4.68;;;;;;;17.05;51.46;99701.72;5030610;28;20344;-35
2023/12/11 03:24:58;;;;;;;13.55;5.13;;;;;;;17.05;51.46;99696.38;5027824;28;20375;-36
2023/12/11 03:27:25;;;;;;;11.52;4.72;;;;;;;17.05;50.98;99690.19;5028684;28;20432;-36
2023/12/11 03:29:52;;;;;;;18.33;5.60;;;;;;;17.05;51.54;99701.72;5028113;28;20349;-35
2023/12/11 03:32:19;;;;;;;17.15;5.50;;;;;;;17.05;51.22;99674.94;5019297;28;20084;-36
2023/12/11 03:34:46;;;;;;;17.45;5.18;;;;;;;17.06;51.59;99683.81;5025136;28;20053;-36
2023/12/11 03:37:12;;;;;;;16.00;5.65;;;;;;;17.06;51.17;99686.47;5027605;28;20038;-36
2023/12/11 03:39:41;;;;;;;16.33;4.97;;;;;;;17.06;51.43;99681.97;5025607;28;20045;-35
2023/12/11 03:42:09;;;;;;;17.73;4.88;;;;;;;17.06;51.45;99687.31;5023656;28;20125;-35
2023/12/11 03:44:36;;;;;;;14.38;4.47;;;;;;;17.06;52.01;99690.00;5023815;28;20057;-36
2023/12/11 03:47:02;;;;;;;12.05;4.40;;;;;;;17.07;51.60;99694.31;5022554;28;20049;-35
2023/12/11 03:49:29;;;;;;;13.63;5.03;;;;;;;17.06;51.12;99698.03;5022692;28;20049;-35
2023/12/11 03:51:56;;;;;;;12.65;4.82;;;;;;;17.06;51.42;99690.00;5027804;28;20053;-35
2023/12/11 03:54:23;;;;;;;14.60;4.65;;;;;;;17.06;51.86;99676.59;5023021;28;20491;-35
2023/12/11 03:56:49;;;;;;;14.02;4.93;;;;;;;17.06;51.16;99681.97;5027603;28;20037;-36
2023/12/11 03:59:16;;;;;;;15.45;4.53;;;;;;;17.06;51.50;99681.97;5027525;28;20049;-35
2023/12/11 04:01:43;;;;;;;10.80;4.45;;;;;;;17.06;51.67;99681.97;5027781;28;20052;-35
2023/12/11 04:04:09;;;;;;;12.55;4.53;;;;;;;17.06;51.67;99676.59;5028094;28;20056;-36
2023/12/11 04:06:36;;;;;;;15.98;3.97;;;;;;;17.06;51.03;99675.78;5032658;28;20229;-35
2023/12/11 04:09:07;;;;;;;12.48;4.50;;;;;;;17.05;52.00;99664.25;5031746;28;20053;-36
2023/12/11 04:11:35;;;;;;;13.38;4.57;;;;;;;17.05;52.02;99668.75;5022526;28;20061;-35
2023/12/11 04:14:02;;;;;;;13.77;4.47;;;;;;;17.03;52.09;99677.78;5024121;28;20365;-36
2023/12/11 04:16:29;;;;;;;18.95;5.22;;;;;;;17.06;52.01;99681.97;5027449;28;20092;-35
2023/12/11 04:18:55;;;;;;;12.38;4.40;;;;;;;17.07;51.60;99675.59;5025947;28;20057;-36
2023/12/11 04:21:26;;;;;;;11.93;4.20;;;;;;;17.13;51.01;99685.59;5023415;28;20061;-36
2023/12/11 04:23:55;;;;;;;15.85;4.40;;;;;;;17.21;51.44;99685.56;5025388;28;20129;-35
2023/12/11 04:26:21;;;;;;;11.95;4.13;;;;;;;17.31;51.07;99685.31;5025614;28;20061;-36
2023/12/11 04:28:48;;;;;;;10.88;3.78;;;;;;;17.41;51.27;99671.72;5028880;28;20119;-36
2023/12/11 04:31:15;;;;;;;15.20;4.78;;;;;;;17.48;50.91;99669.97;5030472;28;20130;-36
2023/12/11 04:33:41;;;;;;;10.73;4.18;;;;;;;17.55;50.63;99664.75;5032357;28;20045;-36
2023/12/11 04:36:08;;;;;;;12.77;4.38;;;;;;;17.62;50.54;99671.88;5024431;28;20046;-36
2023/12/11 04:38:35;;;;;;;12.98;3.78;;;;;;;17.68;50.43;99668.47;5025862;28;20054;-36
2023/12/11 04:41:02;;;;;;;12.20;4.05;;;;;;;17.72;50.44;99658.22;5017482;28;20052;-36
2023/12/11 04:43:29;;;;;;;9.38;3.95;;;;;;;17.75;50.33;99674.81;5030719;28;20094;-36
2023/12/11 04:45:58;;;;;;;9.82;3.95;;;;;;;17.78;50.18;99654.88;5025617;28;20049;-36
2023/12/11 04:48:25;;;;;;;10.75;3.63;;;;;;;17.79;50.53;99648.47;5024927;28;20053;-36
2023/12/11 04:50:52;;;;;;;9.80;3.65;;;;;;;17.81;50.33;99649.16;5022577;28;20513;-36
2023/12/11 04:53:19;;;;;;;10.60;3.63;;;;;;;17.80;50.01;99647.47;5026264;28;20477;-37
2023/12/11 04:55:46;;;;;;;12.73;4.00;;;;;;;17.81;50.29;99640.25;5025624;28;20384;-36
2023/12/11 04:58:12;;;;;;;12.57;4.13;;;;;;;17.81;50.41;99638.44;5030878;28;20392;-36
2023/12/11 05:00:39;;;;;;;12.38;3.70;;;;;;;17.81;50.13;99632.22;5027636;28;20330;-36
2023/12/11 05:03:06;;;;;;;12.05;4.15;;;;;;;17.81;50.31;99626.84;5031673;28;20510;-36
2023/12/11 05:05:34;;;;;;;13.90;4.00;;;;;;;17.81;49.94;99624.16;5023153;28;20088;-37
2023/12/11 05:08:01;;;;;;;12.18;4.35;;;;;;;17.81;49.97;99632.22;5030390;28;20043;-36
2023/12/11 05:10:28;;;;;;;8.98;3.45;;;;;;;17.81;49.94;99618.81;5026153;28;20088;-36
2023/12/11 05:12:55;;;;;;;12.65;4.03;;;;;;;17.80;50.07;99619.84;5030576;28;20091;-36
2023/12/11 05:15:21;;;;;;;16.73;4.28;;;;;;;17.81;50.33;99622.34;5026143;28;20058;-36
2023/12/11 05:17:48;;;;;;;12.73;3.88;;;;;;;17.79;50.18;99616.31;5029258;28;20044;-36
2023/12/11 05:20:17;;;;;;;15.63;4.20;;;;;;;17.80;50.05;99615.31;5028406;28;20152;-36
2023/12/11 05:22:44;;;;;;;11.25;3.97;;;;;;;17.81;50.31;99610.78;5030348;28;20107;-36
2023/12/11 05:25:11;;;;;;;14.02;4.32;;;;;;;17.80;50.22;99619.84;5028313;28;20049;-36
2023/12/11 05:27:37;;;;;;;12.68;4.22;;;;;;;17.79;50.07;99634.25;5026049;28;20049;-36
2023/12/11 05:30:06;;;;;;;16.17;4.72;;;;;;;17.79;50.31;99629.72;5043282;28;20072;-36
2023/12/11 05:32:32;;;;;;;16.00;5.57;;;;;;;17.78;50.21;99620.03;5025416;28;20381;-36
2023/12/11 05:34:59;;;;;;;16.70;4.93;;;;;;;17.79;50.07;99615.50;5028524;28;20050;-36
2023/12/11 05:37:26;;;;;;;16.80;5.40;;;;;;;17.78;50.23;99606.63;5030720;28;20057;-37
2023/12/11 05:39:52;;;;;;;14.00;4.97;;;;;;;17.78;50.09;99608.47;5044993;28;20050;-36
2023/12/11 05:42:39;;;;;;;14.73;5.53;;;;;;;17.78;50.00;99603.13;5030275;28;20053;-36
2023/12/11 05:45:06;;;;;;;17.83;6.00;;;;;;;17.76;50.37;99611.31;5025491;28;20357;-36
2023/12/11 05:47:33;;;;;;;16.42;6.28;;;;;;;17.75;50.54;99605.13;5027559;28;20041;-36
2023/12/11 05:50:00;;;;;;;13.88;6.25;;;;;;;17.75;50.14;99605.13;5024994;28;20122;-36
2023/12/11 05:52:27;;;;;;;16.08;5.97;;;;;;;17.74;49.87;99611.50;5027348;28;20136;-36
2023/12/11 05:54:53;;;;;;;13.43;5.72;;;;;;;17.74;49.84;99608.84;5031203;28;20094;-37
2023/12/11 05:57:20;;;;;;;16.38;5.45;;;;;;;17.75;49.92;99609.66;5025015;28;20065;-37
2023/12/11 05:59:47;;;;;;;17.42;5.88;;;;;;;17.74;50.61;99573.13;5032058;28;20136;-36
2023/12/11 06:02:14;;;;;;;15.05;6.20;;;;;;;17.73;50.36;99596.44;5026615;28;20496;-36
2023/12/11 06:04:41;;;;;;;16.83;6.63;;;;;;;17.72;50.34;99602.78;5029646;28;20076;-36
2023/12/11 06:07:07;;;;;;;14.93;5.90;;;;;;;17.71;50.43;99611.00;5031917;28;20081;-36
2023/12/11 06:09:34;;;;;;;16.92;6.30;;;;;;;17.68;50.08;99606.84;5028071;28;20326;-36
2023/12/11 06:12:01;;;;;;;18.95;7.18;;;;;;;17.66;50.37;99598.16;5030083;28;20108;-36
2023/12/11 06:14:27;;;;;;;14.55;6.57;;;;;;;17.61;50.00;99597.03;5027842;28;20057;-36
2023/12/11 06:16:54;;;;;;;16.23;6.03;;;;;;;17.57;50.36;99595.72;5022018;28;20048;-36
2023/12/11 06:19:21;;;;;;;14.68;6.30;;;;;;;17.52;50.43;99597.09;5022567;28;20199;-36
2023/12/11 06:21:48;;;;;;;15.32;5.90;;;;;;;17.49;50.65;99586.75;5028243;28;20045;-36
2023/12/11 06:24:14;;;;;;;14.10;5.72;;;;;;;17.45;50.69;99584.63;5022666;28;20513;-36
2023/12/11 06:26:42;;;;;;;19.48;7.28;;;;;;;17.41;50.64;99580.66;5028535;28;20077;-36
2023/12/11 06:29:09;;;;;;;14.13;5.70;;;;;;;17.37;51.01;99587.38;5030355;28;20100;-36
2023/12/11 06:31:35;;;;;;;16.38;6.45;;;;;;;17.31;50.63;99598.78;5025665;28;20084;-36
2023/12/11 06:34:03;;;;;;;16.77;6.20;;;;;;;17.26;51.23;99597.47;5028299;28;20054;-36
2023/12/11 06:36:30;;;;;;;16.73;6.05;;;;;;;17.21;50.97;99599.88;5031298;28;20519;-36
2023/12/11 06:38:56;;;;;;;16.80;6.28;;;;;;;17.18;51.72;99613.59;5030837;28;20054;-36
2023/12/11 06:41:23;;;;;;;17.90;6.75;;;;;;;17.15;51.99;99613.13;5028399;28;20057;-36
2023/12/11 06:43:54;;;;;;;13.38;5.85;;;;;;;17.16;51.53;99615.63;5025971;28;20077;-36
2023/12/11 06:46:21;;;;;;;15.85;6.43;;;;;;;17.26;51.66;99618.06;5027238;28;20469;-36
2023/12/11 06:48:48;;;;;;;15.48;6.68;;;;;;;17.38;50.99;99624.69;5027574;28;20037;-36
2023/12/11 06:51:17;;;;;;;19.73;7.22;;;;;;;17.50;51.07;99630.44;5028989;28;20056;-36
2023/12/11 06:53:44;;;;;;;17.55;6.68;;;;;;;17.62;51.04;99623.66;5024731;28;20056;-36
2023/12/11 06:56:21;;;;;;;14.40;6.53;;;;;;;17.72;51.07;99613.50;5024978;28;20111;-36
2023/12/11 06:58:47;;;;;;;19.35;7.50;;;;;;;17.82;50.78;99607.94;5026884;28;20045;-36
2023/12/11 07:01:15;;;;;;;20.67;8.50;;;;;;;17.91;50.13;99612.19;5028490;28;20056;-36
2023/12/11 07:03:44;;;;;;;18.83;6.93;;;;;;;17.99;49.98;99620.13;5026600;28;20049;-37
2023/12/11 07:06:11;;;;;;;17.27;6.93;;;;;;;18.06;50.21;99632.81;5022461;28;20551;-36
2023/12/11 07:08:38;;;;;;;14.65;6.43;;;;;;;18.09;50.20;99630.63;5026501;28;20176;-36
2023/12/11 07:11:05;;;;;;;14.88;6.13;;;;;;;18.10;50.41;99623.41;5022768;28;20335;-36
2023/12/11 07:13:31;;;;;;;15.57;7.00;;;;;;;18.10;50.08;99629.59;5023461;28;20471;-36
2023/12/11 07:15:58;;;;;;;18.67;6.88;;;;;;;18.08;50.25;99634.28;5028356;28;20398;-36
2023/12/11 07:18:25;;;;;;;18.35;6.93;;;;;;;18.05;50.37;99648.09;5028117;28;20123;-36
2023/12/11 07:20:52;;;;;;;16.75;6.07;;;;;;;18.02;50.14;99659.16;5030521;28;20059;-36
2023/12/11 07:23:18;;;;;;;18.55;6.93;;;;;;;17.99;50.45;99663.03;5030562;28;20103;-37
2023/12/11 07:25:47;;;;;;;18.30;7.47;;;;;;;17.98;50.34;99666.75;5028482;28;20045;-36
2023/12/11 07:28:13;;;;;;;15.50;6.85;;;;;;;17.96;50.31;99684.00;5016544;28;20099;-36
2023/12/11 07:30:40;;;;;;;18.85;7.60;;;;;;;17.93;50.59;99684.38;5022412;28;20049;-36
2023/12/11 07:33:08;;;;;;;16.50;7.35;;;;;;;17.91;50.62;99692.59;5020939;28;20057;-36
2023/12/11 07:35:35;;;;;;;15.18;6.93;;;;;;;17.90;50.85;99698.16;5024474;28;20054;-36
2023/12/11 07:38:03;;;;;;;17.15;6.65;;;;;;;17.89;50.68;99707.19;5022885;28;20056;-36
2023/12/11 07:40:29;;;;;;;12.40;6.30;;;;;;;17.88;50.88;99705.53;5027716;28;20103;-36
2023/12/11 07:42:56;;;;;;;15.80;6.20;;;;;;;17.86;50.70;99712.94;5028113;28;20386;-36
2023/12/11 07:45:24;;;;;;;15.43;6.28;;;;;;;17.85;50.53;99709.44;5023224;28;20430;-36
2023/12/11 07:47:50;;;;;;;15.68;5.75;;;;;;;17.85;51.00;99714.78;5025966;28;20038;-36
2023/12/11 07:50:17;;;;;;;13.38;6.13;;;;;;;17.84;50.70;99728.34;5026280;28;20053;-36
2023/12/11 07:52:44;;;;;;;12.63;5.53;;;;;;;17.83;50.79;99743.59;5016750;28;20449;-36
2023/12/11 07:55:11;;;;;;;16.13;5.85;;;;;;;17.82;50.68;99725.03;5016876;28;20053;-37
2023/12/11 07:57:39;;;;;;;12.60;5.93;;;;;;;17.80;50.98;99749.31;5021242;28;20144;-36
2023/12/11 08:00:07;;;;;;;15.00;5.07;;;;;;;17.79;50.90;99761.06;5021368;28;20084;-36
2023/12/11 08:02:35;;;;;;;13.55;4.85;;;;;;;17.77;51.30;99771.13;5021185;28;20508;-36
2023/12/11 08:05:02;;;;;;;16.73;5.70;;;;;;;17.75;51.07;99782.00;5023426;28;20045;-36
2023/12/11 08:07:29;;;;;;;15.75;5.35;;;;;;;17.74;51.26;99792.88;5024707;28;20056;-36
2023/12/11 08:09:56;;;;;;;16.30;5.18;;;;;;;17.70;51.28;99797.78;5019614;28;20054;-37
2023/12/11 08:12:25;;;;;;;10.98;5.45;;;;;;;17.67;51.13;99792.75;5029190;28;20134;-36
2023/12/11 08:14:52;;;;;;;15.23;5.72;;;;;;;17.64;51.32;99798.47;5022291;28;20049;-36
2023/12/11 08:17:19;;;;;;;14.13;5.03;;;;;;;17.62;51.31;99829.97;5026074;28;20116;-36
2023/12/11 08:19:45;;;;;;;13.10;4.80;;;;;;;17.57;51.42;99828.81;5021040;28;20049;-36
2023/12/11 08:22:13;;;;;;;11.40;5.45;;;;;;;17.55;51.23;99828.16;5029440;28;20041;-36
2023/12/11 08:24:40;;;;;;;10.77;4.28;;;;;;;17.51;52.00;99833.03;5023026;28;20095;-35
2023/12/11 08:27:07;;;;;;;18.45;4.90;;;;;;;17.48;51.53;99836.06;5022788;28;20314;-36
2023/12/11 08:29:35;;;;;;;27.95;5.05;;;;;;;17.44;51.95;99842.78;5025842;28;20203;-36
2023/12/11 08:32:04;;;;;;;10.40;4.25;;;;;;;17.40;52.06;99853.00;5023569;28;20739;-36
2023/12/11 08:34:35;;;;;;;9.95;4.22;;;;;;;17.37;51.99;99864.09;5025429;28;20128;-36
2023/12/11 08:37:02;;;;;;;13.02;4.32;;;;;;;17.35;52.01;99860.72;5027353;28;20041;-35
2023/12/11 08:39:29;;;;;;;13.27;4.15;;;;;;;17.32;51.92;99873.63;5021387;28;20376;-36
2023/12/11 08:41:55;;;;;;;10.73;3.88;;;;;;;17.31;52.60;99880.00;5031446;28;20053;-36
2023/12/11 08:44:22;;;;;;;11.48;3.88;;;;;;;17.27;52.59;99893.72;5038984;28;20434;-36
2023/12/11 08:46:48;;;;;;;11.48;3.92;;;;;;;17.24;52.95;99887.88;5030207;28;20132;-35
2023/12/11 08:49:15;;;;;;;11.15;3.60;;;;;;;17.22;52.65;99901.44;5024789;28;20103;-36
2023/12/11 08:51:42;;;;;;;9.05;3.25;;;;;;;17.20;52.46;99899.94;5029907;28;20060;-36
2023/12/11 08:54:09;;;;;;;11.02;3.58;;;;;;;17.19;52.30;99917.00;5026947;28;20429;-36
2023/12/11 08:56:35;;;;;;;9.07;3.22;;;;;;;17.18;52.88;99923.38;5027719;28;20076;-36
2023/12/11 08:59:02;;;;;;;11.45;3.88;;;;;;;17.16;52.42;99918.19;5025885;28;20041;-37
2023/12/11 09:01:30;;;;;;;10.13;3.22;;;;;;;17.15;52.86;99937.94;5027062;28;20061;-36
2023/12/11 09:03:57;;;;;;;9.50;3.40;;;;;;;17.14;53.21;99938.94;5025736;28;20058;-36
2023/12/11 09:06:24;;;;;;;11.77;3.95;;;;;;;17.14;53.10;99946.97;5023225;28;20148;-36
2023/12/11 09:08:51;;;;;;;11.63;3.72;;;;;;;17.14;53.12;99956.88;5028614;28;20050;-36
2023/12/11 09:11:17;;;;;;;9.95;3.25;;;;;;;17.14;52.99;99968.41;5025193;28;20108;-36
2023/12/11 09:13:44;;;;;;;9.13;3.13;;;;;;;17.14;52.27;99981.78;5026858;28;20604;-36
2023/12/11 09:16:10;;;;;;;7.78;3.65;;;;;;;17.13;52.40;99998.03;5027415;28;20496;-36
2023/12/11 09:18:37;;;;;;;11.68;4.07;;;;;;;17.13;52.16;99995.38;5029370;28;20056;-36
2023/12/11 09:21:04;;;;;;;8.65;3.13;;;;;;;17.12;52.78;100007.88;5030878;28;20432;-36
2023/12/11 09:23:31;;;;;;;7.72;3.28;;;;;;;17.12;53.00;100018.59;5029133;28;20361;-36
2023/12/11 09:25:58;;;;;;;8.82;3.30;;;;;;;17.11;52.96;100024.13;5027527;28;20084;-36
2023/12/11 09:28:24;;;;;;;7.97;3.03;;;;;;;17.10;52.86;100033.19;5026551;28;20046;-36
2023/12/11 09:30:56;;;;;;;7.13;3.15;;;;;;;17.09;52.51;100031.50;5018445;28;20053;-36
2023/12/11 09:33:23;;;;;;;9.05;3.10;;;;;;;17.09;52.63;100037.69;5026886;28;20417;-36
2023/12/11 09:35:51;;;;;;;9.05;3.03;;;;;;;17.09;52.12;100032.34;5027197;28;20050;-36
2023/12/11 09:38:17;;;;;;;7.50;2.83;;;;;;;17.10;52.32;100049.25;5028408;28;20049;-36
2023/12/11 09:40:44;;;;;;;6.13;2.80;;;;;;;17.09;53.14;100050.25;5024022;28;20058;-36
2023/12/11 09:43:11;;;;;;;9.23;2.78;;;;;;;17.09;52.88;100056.44;5026642;28;20369;-36
2023/12/11 09:45:39;;;;;;;10.75;3.50;;;;;;;17.09;52.55;100064.47;5026979;28;20059;-36
2023/12/11 09:48:06;;;;;;;9.52;3.45;;;;;;;17.08;52.52;100076.16;5029986;28;20463;-36
2023/12/11 09:50:40;;;;;;;9.25;3.05;;;;;;;17.09;53.19;100083.22;5029241;28;20133;-36
2023/12/11 09:53:08;;;;;;;10.25;3.25;;;;;;;17.10;52.61;100084.03;5029966;28;20065;-36
2023/12/11 09:55:35;;;;;;;7.28;3.05;;;;;;;17.10;53.16;100092.91;5021071;28;20414;-36
2023/12/11 09:58:03;;;;;;;9.95;4.18;;;;;;;17.09;52.87;100104.63;5022233;28;20050;-35
2023/12/11 10:00:30;;;;;;;9.60;2.72;;;;;;;17.10;52.79;100116.19;5025780;28;20103;-35
2023/12/11 10:03:00;;;;;;;8.10;3.20;;;;;;;17.09;52.95;100117.19;5023250;28;20049;-36
2023/12/11 10:05:27;;;;;;;7.35;2.90;;;;;;;17.09;52.67;100130.56;5031180;28;20080;-36
2023/12/11 10:07:54;;;;;;;11.35;3.35;;;;;;;17.08;52.71;100137.75;5025205;28;20377;-36
2023/12/11 10:10:25;;;;;;;9.75;3.40;;;;;;;17.09;52.93;100147.47;5027623;28;20433;-36
2023/12/11 10:12:55;;;;;;;8.15;3.10;;;;;;;17.10;53.30;100151.81;5028344;28;20436;-36
2023/12/11 10:15:28;;;;;;;8.60;3.17;;;;;;;17.08;52.54;100145.78;5032219;28;20064;-36
2023/12/11 10:18:14;;;;;;;14.50;3.95;;;;;;;17.08;52.80;100153.81;5031125;28;20079;-35
2023/12/11 10:20:42;;;;;;;7.25;2.75;;;;;;;17.09;52.89;100168.91;5032344;28;20040;-35
2023/12/11 10:23:21;;;;;;;10.20;3.15;;;;;;;17.09;53.19;100173.41;5025817;28;20057;-35
2023/12/11 10:25:50;;;;;;;13.23;3.80;;;;;;;17.09;52.79;100171.56;5021965;28;20377;-35
2023/12/11 10:28:22;;;;;;;11.60;3.38;;;;;;;17.08;53.03;100187.78;5021392;28;20430;-35
2023/12/11 10:30:53;;;;;;;10.25;3.35;;;;;;;17.07;52.77;100194.16;5024115;28;20057;-35
2023/12/11 10:33:24;;;;;;;8.93;3.00;;;;;;;17.04;53.16;100187.25;5024599;28;20049;-35
2023/12/11 10:35:52;;;;;;;9.45;3.15;;;;;;;17.04;52.95;100192.63;5026645;28;20376;-35
2023/12/11 10:38:27;;;;;;;10.48;2.97;;;;;;;17.02;53.38;100203.50;5026651;28;20060;-35
2023/12/11 10:40:55;;;;;;;6.40;2.55;;;;;;;17.03;53.12;100205.16;5026186;28;20059;-35
2023/12/11 10:43:22;;;;;;;9.88;3.10;;;;;;;17.06;53.10;100197.84;5028121;28;20358;-36
2023/12/11 10:45:49;;;;;;;13.75;4.22;;;;;;;17.07;53.31;100208.38;5027859;28;20381;-35
2023/12/11 10:48:19;;;;;;;11.82;3.53;;;;;;;17.08;53.35;100202.00;5025116;28;20434;-36
2023/12/11 10:50:47;;;;;;;12.57;3.33;;;;;;;17.09;52.44;100200.19;5026786;28;20092;-36
2023/12/11 10:53:15;;;;;;;9.95;2.70;;;;;;;17.07;52.39;100224.44;5026418;28;20054;-36
2023/12/11 10:55:42;;;;;;;8.27;3.00;;;;;;;17.09;52.80;100210.91;5027190;28;20441;-36
2023/12/11 10:58:09;;;;;;;6.97;3.00;;;;;;;17.13;52.74;100201.53;5022484;28;20042;-36
2023/12/11 11:00:38;;;;;;;8.00;3.22;;;;;;;17.18;52.89;100220.63;5025495;28;20050;-36
2023/12/11 11:03:07;;;;;;;9.65;3.25;;;;;;;17.22;52.67;100230.00;5025252;28;20044;-36
2023/12/11 11:05:35;;;;;;;9.85;3.33;;;;;;;17.23;52.08;100232.50;5028021;28;20145;-36
2023/12/11 11:08:12;;;;;;;8.70;3.10;;;;;;;17.25;52.68;100235.88;5021327;28;20508;-36
2023/12/11 11:11:03;;;;;;;11.25;3.42;;;;;;;17.26;52.79;100224.16;5021703;28;20157;-36
2023/12/11 11:13:35;;;;;;;7.13;3.03;;;;;;;17.28;52.03;100222.13;5022120;28;20054;-35
2023/12/11 11:16:03;;;;;;;9.05;3.22;;;;;;;17.30;52.31;100240.75;5024191;28;20099;-36
2023/12/11 11:19:05;;;;;;;7.80;2.53;;;;;;;17.27;52.50;100239.22;5022884;28;20053;-36
2023/12/11 11:21:32;;;;;;;9.48;3.10;;;;;;;17.31;52.13;100238.91;5026872;28;20165;-41
2023/12/11 11:23:59;;;;;;;9.23;2.97;;;;;;;17.31;52.47;100253.13;5025575;28;20152;-35
2023/12/11 11:26:34;;;;;;;7.93;2.75;;;;;;;17.32;52.96;100259.31;5028952;28;20060;-36